Time;durP1;ratioP1;P1;durP2;ratioP2;P2;SDS_P1;SDS_P2;PMS_P1;PMS_P2;Temp;Humidity;BMP_temperature;BMP_pressure;BME280_temperature;BME280_humidity;BME280_pressure;Samples;Min_cycle;Max_cycle;Signal;HPM_P1;HPM_P2
2023/12/15 00:06:13;;;;;;;17.9;9.1;;;;;;;3.57;89.24;;;;;
2023/12/15 00:17:13;;;;;;;17.9;9.1;;;;;;;3.49;88.77;;;;;
2023/12/15 00:27:13;;;;;;;17.9;9.1;;;;;;;3.5;88.57;;;;;
2023/12/15 00:37:13;;;;;;;15.8;9.4;;;;;;;3.52;88.33;;;;;
2023/12/15 00:48:13;;;;;;;15.8;9.4;;;;;;;3.5;88.69;;;;;
2023/12/15 00:59:13;;;;;;;21;10.6;;;;;;;3.32;88.53;;;;;
2023/12/15 01:09:13;;;;;;;21;10.6;;;;;;;3.38;88.56;;;;;
2023/12/15 01:20:14;;;;;;;21;10.6;;;;;;;3.18;87.51;;;;;
2023/12/15 01:30:13;;;;;;;20.6;10.3;;;;;;;3.12;87.61;;;;;
2023/12/15 01:41:13;;;;;;;20.6;10.3;;;;;;;2.96;88.09;;;;;
2023/12/15 01:52:13;;;;;;;20.6;10.3;;;;;;;2.68;88.45;;;;;
2023/12/15 02:02:13;;;;;;;25.8;12.2;;;;;;;2.54;88.82;;;;;
2023/12/15 02:12:13;;;;;;;25.8;12.2;;;;;;;2.44;88.72;;;;;
2023/12/15 02:23:13;;;;;;;25.8;12.2;;;;;;;2.37;88.69;;;;;
2023/12/15 02:34:13;;;;;;;28;11.8;;;;;;;2.32;88.51;;;;;
2023/12/15 02:44:13;;;;;;;28;11.8;;;;;;;2.17;88.76;;;;;
2023/12/15 02:54:13;;;;;;;28;11.8;;;;;;;2.26;87.99;;;;;
2023/12/15 03:05:13;;;;;;;19.1;9.2;;;;;;;2.14;88.31;;;;;
2023/12/15 03:15:13;;;;;;;19.1;9.2;;;;;;;2.21;88.12;;;;;
2023/12/15 03:26:13;;;;;;;19.1;9.2;;;;;;;2.11;87.45;;;;;
2023/12/15 03:37:13;;;;;;;15.5;8.4;;;;;;;2.16;87.09;;;;;
2023/12/15 03:47:13;;;;;;;15.5;8.4;;;;;;;2.2;87.27;;;;;
2023/12/15 03:57:13;;;;;;;15.5;8.4;;;;;;;2.14;87.88;;;;;
2023/12/15 04:08:13;;;;;;;15.5;8.3;;;;;;;2.07;86.94;;;;;
2023/12/15 04:18:13;;;;;;;15.5;8.3;;;;;;;2.07;86.76;;;;;
2023/12/15 04:28:13;;;;;;;10.7;5.6;;;;;;;1.95;86.8;;;;;
2023/12/15 04:39:13;;;;;;;10.7;5.6;;;;;;;1.87;85.84;;;;;
2023/12/15 04:50:13;;;;;;;10.7;5.6;;;;;;;1.98;85.12;;;;;
2023/12/15 05:01:13;;;;;;;13;5.5;;;;;;;1.84;84.15;;;;;
2023/12/15 05:11:13;;;;;;;13;5.5;;;;;;;1.57;84.23;;;;;
2023/12/15 05:22:13;;;;;;;13;5.5;;;;;;;1.46;84.31;;;;;
2023/12/15 05:32:13;;;;;;;11.9;6.2;;;;;;;1.38;84.56;;;;;
2023/12/15 05:42:13;;;;;;;11.9;6.2;;;;;;;1.34;84.28;;;;;
2023/12/15 05:52:14;;;;;;;11.9;6.2;;;;;;;1.29;84.35;;;;;
2023/12/15 06:03:15;;;;;;;10.7;5.9;;;;;;;1.3;84.58;;;;;
2023/12/15 06:14:13;;;;;;;10.7;5.9;;;;;;;1.26;84.46;;;;;
2023/12/15 06:24:13;;;;;;;10.7;5.9;;;;;;;1.07;84.9;;;;;
2023/12/15 06:34:13;;;;;;;12.7;6.8;;;;;;;1.07;85.13;;;;;
2023/12/15 06:45:13;;;;;;;12.7;6.8;;;;;;;1.02;84.92;;;;;
2023/12/15 06:56:13;;;;;;;12.7;6.8;;;;;;;1.04;84.84;;;;;
2023/12/15 07:07:13;;;;;;;12.2;6.8;;;;;;;0.99;83.97;;;;;
2023/12/15 07:17:13;;;;;;;12.2;6.8;;;;;;;1.02;84.15;;;;;
2023/12/15 07:28:14;;;;;;;14.6;8.2;;;;;;;1.09;84.77;;;;;
2023/12/15 07:38:13;;;;;;;14.6;8.2;;;;;;;1.12;84.72;;;;;
2023/12/15 07:48:13;;;;;;;14.6;8.2;;;;;;;1.28;84.58;;;;;
2023/12/15 07:58:13;;;;;;;16.6;8.2;;;;;;;1.36;83.75;;;;;
2023/12/15 08:08:13;;;;;;;16.6;8.2;;;;;;;1.5;83.98;;;;;
2023/12/15 08:19:13;;;;;;;16.6;8.2;;;;;;;1.69;83.09;;;;;
2023/12/15 08:29:13;;;;;;;15.3;8.6;;;;;;;1.53;82.86;;;;;
2023/12/15 08:39:13;;;;;;;15.3;8.6;;;;;;;1.37;83.69;;;;;
2023/12/15 08:50:13;;;;;;;15.3;8.6;;;;;;;1.35;82.93;;;;;
2023/12/15 09:01:13;;;;;;;18.7;10.9;;;;;;;1.67;82.27;;;;;
2023/12/15 09:11:13;;;;;;;18.7;10.9;;;;;;;1.74;82.07;;;;;
2023/12/15 09:21:13;;;;;;;18.7;10.9;;;;;;;1.89;81.79;;;;;
2023/12/15 09:31:14;;;;;;;22.1;12.1;;;;;;;2.07;81.42;;;;;
2023/12/15 09:42:13;;;;;;;22.1;12.1;;;;;;;2.12;81.08;;;;;
2023/12/15 09:53:13;;;;;;;22.1;12.1;;;;;;;2.44;81.57;;;;;
2023/12/15 10:04:13;;;;;;;20.2;12.8;;;;;;;2.82;80.61;;;;;
2023/12/15 10:14:14;;;;;;;20.2;12.8;;;;;;;2.48;79.31;;;;;
2023/12/15 10:24:13;;;;;;;20.2;12.8;;;;;;;2.33;79.05;;;;;
2023/12/15 10:35:13;;;;;;;21.8;12.7;;;;;;;2.52;78.65;;;;;
2023/12/15 10:46:13;;;;;;;21.8;12.7;;;;;;;2.78;77.12;;;;;
2023/12/15 10:57:13;;;;;;;22.9;11.9;;;;;;;3.15;77.96;;;;;
2023/12/15 11:07:13;;;;;;;22.9;11.9;;;;;;;3.1;75.77;;;;;
2023/12/15 11:17:14;;;;;;;22.9;11.9;;;;;;;3.37;75.84;;;;;
2023/12/15 11:28:15;;;;;;;20.5;10.7;;;;;;;3.36;74.88;;;;;
2023/12/15 11:39:14;;;;;;;20.5;10.7;;;;;;;3.38;73.6;;;;;
2023/12/15 11:49:13;;;;;;;20.5;10.7;;;;;;;3.17;74.02;;;;;
2023/12/15 11:59:13;;;;;;;19.7;12;;;;;;;2.96;74.65;;;;;
2023/12/15 12:09:13;;;;;;;19.7;12;;;;;;;2.96;75.22;;;;;
2023/12/15 12:19:14;;;;;;;19.7;12;;;;;;;2.69;76.4;;;;;
2023/12/15 12:29:13;;;;;;;17.4;11.4;;;;;;;2.65;77.89;;;;;
2023/12/15 12:39:13;;;;;;;17.4;11.4;;;;;;;2.33;81.01;;;;;
2023/12/15 12:50:14;;;;;;;17.4;11.4;;;;;;;2.29;81.47;;;;;
2023/12/15 13:01:13;;;;;;;16.3;9.2;;;;;;;2.29;80.88;;;;;
2023/12/15 13:11:14;;;;;;;16.3;9.2;;;;;;;2.18;81.89;;;;;
2023/12/15 13:22:13;;;;;;;16.3;9.2;;;;;;;2.33;81.5;;;;;
2023/12/15 13:32:14;;;;;;;19.8;10.9;;;;;;;2.29;80.86;;;;;
2023/12/15 13:43:14;;;;;;;19.8;10.9;;;;;;;2.27;79.4;;;;;
2023/12/15 13:54:14;;;;;;;19.8;10.9;;;;;;;2.33;78.92;;;;;
2023/12/15 14:05:13;;;;;;;21.2;11.7;;;;;;;2.19;79.11;;;;;
2023/12/15 14:16:14;;;;;;;21.2;11.7;;;;;;;2.06;79.25;;;;;
2023/12/15 14:27:14;;;;;;;23.5;12;;;;;;;1.93;79.46;;;;;
2023/12/15 14:38:14;;;;;;;23.5;12;;;;;;;1.81;80.24;;;;;
2023/12/15 14:48:13;;;;;;;23.5;12;;;;;;;1.78;80.41;;;;;
2023/12/15 14:59:13;;;;;;;19.4;11.6;;;;;;;1.69;80.93;;;;;
2023/12/15 15:10:14;;;;;;;19.4;11.6;;;;;;;1.61;81.14;;;;;
2023/12/15 15:20:14;;;;;;;19.4;11.6;;;;;;;1.72;80.9;;;;;
2023/12/15 15:31:14;;;;;;;17.4;10.9;;;;;;;1.74;81.22;;;;;
2023/12/15 15:42:14;;;;;;;17.4;10.9;;;;;;;1.67;81.5;;;;;
2023/12/15 15:53:14;;;;;;;17.4;10.9;;;;;;;1.65;81.6;;;;;
2023/12/15 16:03:14;;;;;;;19.1;12;;;;;;;1.62;81.61;;;;;
2023/12/15 16:13:14;;;;;;;19.1;12;;;;;;;1.51;81.57;;;;;
2023/12/15 16:24:13;;;;;;;19.1;12;;;;;;;1.28;81.21;;;;;
2023/12/15 16:34:14;;;;;;;19.2;11.1;;;;;;;1.02;82.16;;;;;
2023/12/15 16:45:14;;;;;;;19.2;11.1;;;;;;;0.9;82.45;;;;;
2023/12/15 16:56:14;;;;;;;19.2;11.1;;;;;;;0.59;83.62;;;;;
2023/12/15 17:07:14;;;;;;;26.6;14.1;;;;;;;0.49;83.2;;;;;
2023/12/15 17:17:14;;;;;;;26.6;14.1;;;;;;;0.29;82.94;;;;;
2023/12/15 17:28:14;;;;;;;26.6;15.1;;;;;;;0.08;82.9;;;;;
2023/12/15 17:39:15;;;;;;;26.6;15.1;;;;;;;-0.1;83.36;;;;;
2023/12/15 17:49:14;;;;;;;26.6;15.1;;;;;;;-0.29;83.39;;;;;
2023/12/15 18:00:14;;;;;;;29.7;15.1;;;;;;;-0.42;84.65;;;;;
2023/12/15 18:10:15;;;;;;;29.7;15.1;;;;;;;-0.51;84.87;;;;;
2023/12/15 18:20:14;;;;;;;29.7;15.1;;;;;;;-0.44;85.29;;;;;
2023/12/15 18:31:14;;;;;;;24;14.4;;;;;;;-0.17;85.09;;;;;
2023/12/15 18:42:15;;;;;;;24;14.4;;;;;;;0.11;84.15;;;;;
2023/12/15 18:53:14;;;;;;;24;14.4;;;;;;;0.29;83.19;;;;;
2023/12/15 19:04:14;;;;;;;26.6;15.4;;;;;;;0.47;82.52;;;;;
2023/12/15 19:14:14;;;;;;;26.6;15.4;;;;;;;0.51;81.73;;;;;
2023/12/15 19:25:14;;;;;;;26.6;15.4;;;;;;;0.64;81.29;;;;;
2023/12/15 19:35:14;;;;;;;21.3;12.6;;;;;;;0.76;80.75;;;;;
2023/12/15 19:46:14;;;;;;;21.3;12.6;;;;;;;0.98;80.72;;;;;
2023/12/15 19:56:14;;;;;;;21.3;12.3;;;;;;;1.04;80.01;;;;;
2023/12/15 20:07:14;;;;;;;21.3;12.3;;;;;;;1.09;79.59;;;;;
2023/12/15 20:18:14;;;;;;;21.3;12.3;;;;;;;1.2;78.71;;;;;
2023/12/15 20:29:14;;;;;;;16.6;10.1;;;;;;;1.32;78.35;;;;;
2023/12/15 20:40:14;;;;;;;16.6;10.1;;;;;;;1.51;78.45;;;;;
2023/12/15 20:51:14;;;;;;;16.6;10.1;;;;;;;1.45;78.83;;;;;
2023/12/15 21:02:14;;;;;;;20.3;9.9;;;;;;;1.57;79.06;;;;;
2023/12/15 21:13:15;;;;;;;20.3;9.9;;;;;;;1.62;78.81;;;;;
2023/12/15 21:23:14;;;;;;;20.3;9.9;;;;;;;1.58;79.07;;;;;
2023/12/15 21:33:14;;;;;;;20.1;9.6;;;;;;;1.64;78.61;;;;;
2023/12/15 21:43:14;;;;;;;20.1;9.6;;;;;;;1.63;78.67;;;;;
2023/12/15 21:53:14;;;;;;;20.1;9.6;;;;;;;1.41;79.15;;;;;
2023/12/15 22:04:14;;;;;;;18.5;9.2;;;;;;;1.31;79.4;;;;;
2023/12/15 22:14:15;;;;;;;18.5;9.2;;;;;;;1.11;80.12;;;;;
2023/12/15 22:25:14;;;;;;;18.5;9.2;;;;;;;0.89;80.46;;;;;
2023/12/15 22:35:14;;;;;;;19.2;9.5;;;;;;;0.71;81.19;;;;;
2023/12/15 22:45:14;;;;;;;19.2;9.5;;;;;;;0.65;81.63;;;;;
2023/12/15 22:56:14;;;;;;;17.1;9.5;;;;;;;0.7;82.26;;;;;
2023/12/15 23:06:14;;;;;;;17.1;9.5;;;;;;;0.81;82.2;;;;;
2023/12/15 23:16:14;;;;;;;17.1;9.5;;;;;;;0.98;81.75;;;;;
2023/12/15 23:27:14;;;;;;;14;8.5;;;;;;;1.13;81.31;;;;;
2023/12/15 23:37:14;;;;;;;14;8.5;;;;;;;1.24;80.91;;;;;
2023/12/15 23:48:15;;;;;;;14;8.5;;;;;;;1.37;80.71;;;;;
2023/12/15 23:59:14;;;;;;;14.5;7.4;;;;;;;1.42;80.62;;;;;
